»·PEaware :: UAL791 KSFO-KBOI

UAL791 :: KSFO-KBOI

FLIGHT INFORMATION

Flight Status: Arrived
Operator:
United Airlines
More flights by this operator :: More flights under this callsign
Pilot: Chase W. (8260)
Aircraft: BOEING 737-800
(B738)
More flights by this aircraft type
Origin: KSFO San Francisco Intl
United States
Destination: KBOI Boise Air Terminal/Gowen
United States
More flights between these airports :: More routes between these airports
Route: +TRUKN2 ORRCA FMG PRNCS SADYL3
File this flight plan on PilotEdge
Remarks:
Altitude:
(Current/Filed)
25,000ft
Speed:
(Current/Filed)
450kts
Departed: 07-Jan-18 01:20 PM
Arrived: 07-Jan-18 02:50 PM
Distance/Time
Traveled:
454nm/1:30
Distance/Time
To Go:
Arrived

Flight Plot

Page will automatically refresh every two minutes.

Flight plan parsing failed; only flown route is shown


Map Options




Map Legend


Flown Route
Filed Route
Departure Airport
Arrival Airport
Navaid (VOR, NDB)
Fix

Horizontal Profiles

Position Reports

Time Latitude Longitude Heading Altitude Ground
Speed
07-Jan-18 12:59 37.618317 -122.381980 145 21ft 0kts
07-Jan-18 13:00 37.618317 -122.381980 145 21ft 0kts
07-Jan-18 13:01 37.618317 -122.381980 145 21ft 0kts
07-Jan-18 13:02 37.618317 -122.381980 145 21ft 0kts
07-Jan-18 13:03 37.618317 -122.381980 145 21ft 0kts
07-Jan-18 13:04 37.618317 -122.381980 145 21ft 0kts
07-Jan-18 13:05 37.618317 -122.381980 145 21ft 0kts
07-Jan-18 13:06 37.618317 -122.381980 145 21ft 0kts
07-Jan-18 13:07 37.618317 -122.381980 145 21ft 0kts
07-Jan-18 13:08 37.618317 -122.381980 145 21ft 0kts
07-Jan-18 13:09 37.618317 -122.381980 145 21ft 0kts
07-Jan-18 13:10 37.618317 -122.381980 145 21ft 0kts
07-Jan-18 13:11 37.618317 -122.381980 145 21ft 0kts
07-Jan-18 13:12 37.618317 -122.381980 145 21ft 0kts
07-Jan-18 13:13 37.618317 -122.381980 145 21ft 0kts
07-Jan-18 13:14 37.618317 -122.381980 145 21ft 0kts
07-Jan-18 13:15 37.618524 -122.382163 145 21ft 2kts
07-Jan-18 13:16 37.618672 -122.382453 85 21ft 2kts
07-Jan-18 13:17 37.618593 -122.382678 55 21ft 0kts
07-Jan-18 13:18 37.618593 -122.382678 55 21ft 0kts
07-Jan-18 13:19 37.618593 -122.382678 55 21ft 0kts
07-Jan-18 13:20 37.618654 -122.382613 39 21ft 2kts
07-Jan-18 13:21 37.619207 -122.380945 117 21ft 20kts
07-Jan-18 13:22 37.615475 -122.380393 209 21ft 28kts
07-Jan-18 13:23 37.611430 -122.383099 208 21ft 29kts
07-Jan-18 13:24 37.609431 -122.383521 117 21ft 0kts
07-Jan-18 13:25 37.609056 -122.382508 97 21ft 8kts
07-Jan-18 13:26 37.618615 -122.375863 28 24ft 154kts
07-Jan-18 13:27 37.644859 -122.344593 53 1546ft 178kts
07-Jan-18 13:28 37.669238 -122.303155 53 3174ft 181kts
07-Jan-18 13:29 37.686618 -122.273267 52 4332ft 186kts
07-Jan-18 13:30 37.703484 -122.241321 55 5506ft 197kts
07-Jan-18 13:31 37.723604 -122.210387 34 6676ft 200kts
07-Jan-18 13:32 37.755258 -122.181095 34 8071ft 208kts
07-Jan-18 13:33 37.786269 -122.152791 34 9379ft 215kts
07-Jan-18 13:34 37.824955 -122.117710 34 10957ft 222kts
07-Jan-18 13:35 37.865847 -122.080656 35 12567ft 232kts
07-Jan-18 13:36 37.909553 -122.040885 34 14211ft 244kts
07-Jan-18 13:37 37.953858 -122.000603 34 15798ft 256kts
07-Jan-18 13:38 38.004860 -121.954176 34 17543ft 270kts
07-Jan-18 13:39 38.058896 -121.904912 33 19308ft 283kts
07-Jan-18 13:40 38.112432 -121.856018 33 20972ft 295kts
07-Jan-18 13:41 38.169468 -121.803857 32 22485ft 308kts
07-Jan-18 13:42 38.228658 -121.749612 32 23824ft 319kts
07-Jan-18 13:43 38.289122 -121.693185 42 25135ft 331kts
07-Jan-18 13:44 38.339585 -121.615439 51 25272ft 388kts
07-Jan-18 13:45 38.394531 -121.527708 51 25266ft 447kts
07-Jan-18 13:46 38.453960 -121.432439 51 25245ft 487kts
07-Jan-18 13:47 38.514196 -121.335703 51 25230ft 484kts
07-Jan-18 13:48 38.571364 -121.243634 51 25224ft 484kts
07-Jan-18 13:49 38.635064 -121.140672 52 25224ft 483kts
07-Jan-18 13:50 38.693559 -121.045945 52 25218ft 479kts
07-Jan-18 13:51 38.765407 -120.929160 52 25212ft 476kts
07-Jan-18 13:52 38.840472 -120.806594 52 25214ft 476kts
07-Jan-18 13:53 38.917858 -120.679618 52 25219ft 475kts
07-Jan-18 13:54 39.008635 -120.529784 51 25239ft 470kts
07-Jan-18 13:55 39.072700 -120.423774 51 25246ft 469kts
07-Jan-18 13:56 39.142208 -120.308544 51 25239ft 468kts
07-Jan-18 13:57 39.214984 -120.187547 51 25242ft 468kts
07-Jan-18 13:58 39.280598 -120.078002 51 25242ft 468kts
07-Jan-18 13:59 39.326917 -120.000463 52 25243ft 467kts
07-Jan-18 14:00 39.361245 -119.942868 52 25244ft 468kts
07-Jan-18 14:01 39.393924 -119.887943 51 25243ft 467kts
07-Jan-18 14:02 39.435743 -119.817482 52 25247ft 468kts
07-Jan-18 14:03 39.476307 -119.749047 51 25249ft 468kts
07-Jan-18 14:04 39.508010 -119.695609 50 25247ft 467kts
07-Jan-18 14:05 39.551576 -119.648598 27 25256ft 462kts
07-Jan-18 14:06 39.608966 -119.609881 22 25255ft 460kts
07-Jan-18 14:07 39.682095 -119.565066 21 25260ft 469kts
07-Jan-18 14:08 39.787811 -119.500890 21 25251ft 474kts
07-Jan-18 14:09 39.900760 -119.432214 20 25253ft 474kts
07-Jan-18 14:10 40.017808 -119.360720 21 25258ft 474kts
07-Jan-18 14:11 40.129723 -119.292106 21 25250ft 473kts
07-Jan-18 14:12 40.247667 -119.219540 22 25260ft 473kts
07-Jan-18 14:13 40.365885 -119.146521 21 25263ft 473kts
07-Jan-18 14:14 40.484255 -119.073132 22 25263ft 473kts
07-Jan-18 14:15 40.602556 -118.999484 21 25268ft 471kts
07-Jan-18 14:16 40.719574 -118.926311 21 25270ft 468kts
07-Jan-18 14:17 40.835566 -118.853532 21 25269ft 463kts
07-Jan-18 14:18 40.948079 -118.782735 21 25267ft 461kts
07-Jan-18 14:19 41.053192 -118.716413 22 25257ft 450kts
07-Jan-18 14:20 41.146514 -118.657217 23 25247ft 441kts
07-Jan-18 14:21 41.245074 -118.594380 23 25248ft 442kts
07-Jan-18 14:22 41.343361 -118.531622 23 25248ft 442kts
07-Jan-18 14:23 41.441977 -118.468445 23 25249ft 442kts
07-Jan-18 14:24 41.545195 -118.402095 23 24962ft 440kts
07-Jan-18 14:25 41.646227 -118.336919 23 24511ft 437kts
07-Jan-18 14:26 41.753394 -118.267532 23 24232ft 436kts
07-Jan-18 14:27 41.862004 -118.196950 23 24228ft 436kts
07-Jan-18 14:28 41.970326 -118.126285 23 23961ft 434kts
07-Jan-18 14:29 42.077071 -118.056390 23 23466ft 431kts
07-Jan-18 14:30 42.179405 -117.989131 23 22985ft 428kts
07-Jan-18 14:31 42.285139 -117.919380 23 22485ft 424kts
07-Jan-18 14:32 42.390152 -117.849849 24 21987ft 421kts
07-Jan-18 14:33 42.479857 -117.752272 47 21488ft 423kts
07-Jan-18 14:34 42.554178 -117.631206 49 21231ft 420kts
07-Jan-18 14:35 42.627960 -117.508737 49 21230ft 421kts
07-Jan-18 14:36 42.701035 -117.386864 49 21231ft 421kts
07-Jan-18 14:37 42.770493 -117.270563 50 21228ft 421kts
07-Jan-18 14:38 42.842684 -117.148286 50 20621ft 416kts
07-Jan-18 14:39 42.904778 -117.042533 50 19315ft 386kts
07-Jan-18 14:40 42.957481 -116.952492 49 18124ft 380kts
07-Jan-18 14:41 43.006407 -116.868635 49 16997ft 373kts
07-Jan-18 14:42 43.055194 -116.785277 48 15858ft 367kts
07-Jan-18 14:43 43.102788 -116.704793 48 14736ft 360kts
07-Jan-18 14:44 43.143970 -116.634908 48 13678ft 333kts
07-Jan-18 14:45 43.192229 -116.570890 19 12265ft 306kts
07-Jan-18 14:46 43.256351 -116.541184 17 10595ft 286kts
07-Jan-18 14:47 43.319789 -116.514827 16 8859ft 272kts
07-Jan-18 14:48 43.379683 -116.490670 15 7172ft 263kts
07-Jan-18 14:49 43.437573 -116.467603 15 5638ft 237kts
07-Jan-18 14:50 43.488253 -116.445808 32 4800ft 233kts
07-Jan-18 14:51 43.521834 -116.405860 41 4587ft 175kts
07-Jan-18 14:52 43.553129 -116.367752 41 4504ft 172kts
07-Jan-18 14:53 43.579180 -116.336019 41 4340ft 165kts
07-Jan-18 14:54 43.584980 -116.285776 112 3842ft 164kts
07-Jan-18 14:55 43.568223 -116.237172 115 2882ft 132kts
07-Jan-18 14:56 43.565435 -116.223740 3 2879ft 18kts
07-Jan-18 14:57 43.566277 -116.219988 79 2879ft 12kts
07-Jan-18 14:58 43.567116 -116.217144 354 2879ft 14kts
07-Jan-18 14:59 43.567566 -116.218212 217 2879ft 2kts

Navigation Log

Ident Type
Flight plan parsing failed, navigation log unavailable